createdAt,value
2019-06-20T00:00:39.779Z,3.40
2019-06-20T00:05:44.085Z,3.43
2019-06-20T00:10:50.453Z,3.20
2019-06-20T00:15:54.231Z,3.40
2019-06-20T00:20:57.867Z,3.33
2019-06-20T00:26:04.360Z,3.63
2019-06-20T00:31:14.332Z,3.93
2019-06-20T00:36:19.655Z,3.40
2019-06-20T00:41:24.918Z,4.30
2019-06-20T00:46:33.101Z,4.93
2019-06-20T00:51:37.169Z,3.07
2019-06-20T00:56:44.399Z,3.17
2019-06-20T01:01:50.927Z,3.40
2019-06-20T01:06:54.533Z,3.77
2019-06-20T01:11:58.140Z,3.10
2019-06-20T01:17:01.962Z,2.77
2019-06-20T01:22:05.817Z,2.90
2019-06-20T01:27:12.022Z,3.37
2019-06-20T01:32:17.269Z,2.90
2019-06-20T01:37:22.541Z,2.60
2019-06-20T01:42:29.098Z,3.17
2019-06-20T01:47:32.703Z,3.40
2019-06-20T01:52:37.990Z,3.17
2019-06-20T01:57:50.105Z,2.80
2019-06-20T02:02:53.804Z,2.80
2019-06-20T02:07:57.406Z,2.73
2019-06-20T02:13:05.099Z,2.60
2019-06-20T02:18:08.858Z,2.67
2019-06-20T02:23:15.515Z,3.00
2019-06-20T02:28:20.925Z,2.50
2019-06-20T02:33:30.652Z,2.50
2019-06-20T02:38:37.081Z,3.00
2019-06-20T02:43:40.780Z,3.17
2019-06-20T02:48:44.386Z,3.00
2019-06-20T02:53:48.243Z,2.90
2019-06-20T02:58:52.013Z,2.90
2019-06-20T03:03:55.647Z,3.13
2019-06-20T03:08:59.294Z,3.40
2019-06-20T03:14:03.007Z,3.30
2019-06-20T03:19:06.725Z,3.03
2019-06-20T03:24:10.314Z,3.37
2019-06-20T03:29:13.943Z,2.90
2019-06-20T03:34:17.575Z,3.20
2019-06-20T03:39:21.209Z,3.00
2019-06-20T03:44:24.854Z,3.10
2019-06-20T03:49:28.475Z,3.10
2019-06-20T03:54:32.099Z,3.20
2019-06-20T03:59:35.719Z,3.77
2019-06-20T04:04:39.341Z,3.30
2019-06-20T04:09:42.953Z,3.40
2019-06-20T04:14:49.007Z,3.10
2019-06-20T04:19:51.855Z,3.67
2019-06-20T04:24:55.471Z,3.63
2019-06-20T04:30:00.648Z,3.63
2019-06-20T04:35:06.030Z,3.73
2019-06-20T04:40:10.775Z,4.00
2019-06-20T04:45:35.400Z,4.17
2019-06-20T04:50:37.574Z,3.70
2019-06-20T04:55:41.219Z,3.33
2019-06-20T05:00:45.576Z,3.67
2019-06-20T05:05:50.441Z,3.63
2019-06-20T05:10:56.201Z,3.50
2019-06-20T05:15:59.964Z,3.80
2019-06-20T05:21:04.030Z,4.10
2019-06-20T05:26:08.101Z,3.80
2019-06-20T05:31:12.973Z,4.10
2019-06-20T05:36:16.863Z,3.87
2019-06-20T05:41:24.041Z,4.13
2019-06-20T05:46:28.512Z,3.30
2019-06-20T05:51:32.668Z,3.43
2019-06-20T05:56:39.284Z,3.40
2019-06-20T06:01:43.014Z,4.10
2019-06-20T06:06:47.576Z,3.43
2019-06-20T06:11:51.977Z,3.70
2019-06-20T06:16:57.163Z,3.20
2019-06-20T06:22:02.501Z,2.50
2019-06-20T06:27:06.472Z,2.90
2019-06-20T06:32:10.205Z,2.67
2019-06-20T06:37:13.948Z,2.83
2019-06-20T06:42:17.710Z,2.80
2019-06-20T06:47:22.338Z,2.43
2019-06-20T06:52:25.969Z,2.47
2019-06-20T06:57:29.651Z,2.43
2019-06-20T07:02:33.389Z,2.33
2019-06-20T07:07:37.147Z,2.97
2019-06-20T07:12:40.785Z,2.97
2019-06-20T07:17:44.484Z,3.50
2019-06-20T07:22:48.190Z,3.07
2019-06-20T07:27:51.817Z,2.93
2019-06-20T07:32:55.502Z,3.23
2019-06-20T07:37:59.194Z,2.90
2019-06-20T07:43:02.953Z,2.33
2019-06-20T07:48:06.735Z,2.50
2019-06-20T07:53:10.339Z,1.97
2019-06-20T07:58:13.985Z,2.30
2019-06-20T08:03:17.657Z,2.33
2019-06-20T08:08:21.279Z,2.20
2019-06-20T08:13:25.007Z,1.80
2019-06-20T08:18:31.745Z,2.50
2019-06-20T08:23:35.414Z,2.50
2019-06-20T08:28:39.036Z,2.23
2019-06-20T08:33:42.675Z,2.30
2019-06-20T08:38:46.345Z,1.73
2019-06-20T08:43:49.980Z,2.00
2019-06-20T08:48:53.614Z,2.00
2019-06-20T08:53:57.548Z,2.13
2019-06-20T08:59:02.404Z,2.23
2019-06-20T09:04:06.504Z,1.87
2019-06-20T09:09:10.171Z,1.70
2019-06-20T09:14:13.807Z,1.80
2019-06-20T09:19:17.417Z,2.10
2019-06-20T09:24:21.046Z,2.17
2019-06-20T09:29:24.755Z,2.00
2019-06-20T09:34:28.443Z,1.93
2019-06-20T09:39:32.183Z,2.30
2019-06-20T09:44:35.812Z,1.70
2019-06-20T09:49:39.432Z,2.20
2019-06-20T09:54:43.115Z,1.70
2019-06-20T09:59:58.987Z,1.80
2019-06-20T10:04:52.404Z,2.43
2019-06-20T10:09:56.346Z,1.97
2019-06-20T10:15:00.044Z,2.20
2019-06-20T10:20:05.788Z,2.10
2019-06-20T10:25:09.927Z,2.27
2019-06-20T10:30:14.892Z,1.90
2019-06-20T10:35:20.601Z,1.90
2019-06-20T10:40:24.664Z,1.93
2019-06-20T10:45:28.770Z,2.30
2019-06-20T10:50:32.819Z,2.40
2019-06-20T10:55:36.578Z,2.80
2019-06-20T11:00:41.689Z,3.10
2019-06-20T11:05:45.615Z,2.70
2019-06-20T11:10:49.381Z,3.03
2019-06-20T11:15:52.994Z,2.77
2019-06-20T11:20:56.644Z,2.63
2019-06-20T11:26:00.788Z,3.03
2019-06-20T11:31:04.550Z,2.83
2019-06-20T11:36:08.337Z,2.90
2019-06-20T11:41:12.031Z,3.33
2019-06-20T11:46:15.729Z,3.30
2019-06-20T11:51:19.429Z,3.70
2019-06-20T11:56:23.045Z,3.67
2019-06-20T12:01:32.813Z,3.47
2019-06-20T12:06:32.030Z,3.40
2019-06-20T12:11:35.735Z,3.70
2019-06-20T12:16:40.824Z,4.60
2019-06-20T12:21:44.998Z,3.50
2019-06-20T12:26:48.709Z,4.10
2019-06-20T12:31:53.438Z,3.63
2019-06-20T12:36:57.128Z,4.10
2019-06-20T12:42:00.983Z,4.53
2019-06-20T12:47:04.574Z,4.17
2019-06-20T12:52:08.291Z,5.03
2019-06-20T12:57:14.914Z,4.87
2019-06-20T13:02:18.627Z,4.67
2019-06-20T13:07:22.284Z,4.17
2019-06-20T13:12:26.056Z,4.50
2019-06-20T13:17:29.683Z,4.60
2019-06-20T13:22:33.315Z,5.73
2019-06-20T13:27:39.085Z,4.57
2019-06-20T13:32:43.802Z,4.40
2019-06-20T13:37:49.817Z,3.87
2019-06-20T13:42:54.742Z,4.27
2019-06-20T13:47:58.812Z,4.30
2019-06-20T13:53:02.442Z,4.17
2019-06-20T13:58:06.302Z,4.37
2019-06-20T14:03:10.141Z,3.80
2019-06-20T14:08:13.832Z,4.90
2019-06-20T14:13:19.475Z,5.20
2019-06-20T14:18:22.912Z,4.60
2019-06-20T14:23:26.618Z,5.43
2019-06-20T14:28:30.435Z,4.23
2019-06-20T14:33:34.050Z,4.83
2019-06-20T14:38:37.705Z,4.37
2019-06-20T14:43:41.362Z,4.70
2019-06-20T14:48:46.709Z,5.03
2019-06-20T14:53:50.751Z,5.67
2019-06-20T14:58:55.530Z,5.50
2019-06-20T15:03:59.250Z,5.80
2019-06-20T15:09:09.125Z,5.30
2019-06-20T15:14:12.754Z,4.87
2019-06-20T15:19:16.399Z,4.40
2019-06-20T15:24:20.015Z,5.13
2019-06-20T15:29:23.648Z,6.53
2019-06-20T15:34:27.295Z,5.53
2019-06-20T15:39:30.951Z,6.80
2019-06-20T15:44:34.586Z,6.57
2019-06-20T15:49:38.187Z,6.27
2019-06-20T15:54:41.803Z,6.93
2019-06-20T15:59:45.427Z,7.70
2019-06-20T16:04:49.076Z,5.90
2019-06-20T16:09:52.818Z,7.40
2019-06-20T16:14:56.549Z,8.63
2019-06-20T16:20:00.182Z,7.27
2019-06-20T16:25:05.393Z,7.60
2019-06-20T16:30:10.195Z,7.80
2019-06-20T16:35:15.466Z,8.67
2019-06-20T16:40:38.570Z,8.23
2019-06-20T16:45:43.408Z,7.03
2019-06-20T16:50:47.151Z,7.27
2019-06-20T16:55:51.080Z,6.67
2019-06-20T17:00:54.863Z,6.50
2019-06-20T17:05:58.495Z,7.40
2019-06-20T17:11:03.244Z,8.67
2019-06-20T17:16:06.980Z,8.30
2019-06-20T17:21:10.703Z,7.97
2019-06-20T17:26:14.330Z,8.30
2019-06-20T17:31:17.988Z,7.07
2019-06-20T17:36:21.736Z,6.93
2019-06-20T17:41:25.375Z,9.43
2019-06-20T17:46:29.070Z,8.37
2019-06-20T17:51:32.676Z,8.23
2019-06-20T17:56:36.399Z,9.43
2019-06-20T18:01:40.038Z,9.60
2019-06-20T18:06:43.959Z,10.30
2019-06-20T18:11:47.627Z,9.33
2019-06-20T18:16:51.429Z,9.33
2019-06-20T18:21:55.114Z,6.50
2019-06-20T18:26:58.820Z,6.87
2019-06-20T18:32:02.576Z,6.23
2019-06-20T18:37:06.363Z,6.83
2019-06-20T18:42:10.250Z,6.83
2019-06-20T18:47:13.888Z,6.00
2019-06-20T18:52:17.774Z,5.50
2019-06-20T18:57:21.498Z,5.07
2019-06-20T19:02:29.690Z,5.50
2019-06-20T19:07:33.317Z,4.70
2019-06-20T19:12:37.028Z,5.10
2019-06-20T19:17:40.923Z,5.30
2019-06-20T19:22:44.591Z,5.00
2019-06-20T19:27:48.392Z,4.90
2019-06-20T19:32:51.979Z,4.40
2019-06-20T19:37:55.731Z,4.20
2019-06-20T19:42:59.421Z,4.30
2019-06-20T19:48:03.692Z,5.17
2019-06-20T19:53:07.479Z,4.50
2019-06-20T19:58:11.318Z,4.13
2019-06-20T20:03:15.018Z,4.63
2019-06-20T20:08:18.725Z,4.20
2019-06-20T20:13:22.351Z,4.60
2019-06-20T20:18:26.126Z,3.70
2019-06-20T20:23:29.786Z,3.97
2019-06-20T20:28:34.526Z,4.20
2019-06-20T20:33:39.725Z,5.47
2019-06-20T20:38:43.341Z,6.57
2019-06-20T20:43:46.956Z,4.53
2019-06-20T20:48:50.637Z,4.57
2019-06-20T20:53:54.333Z,6.67
2019-06-20T20:59:00.918Z,4.23
2019-06-20T21:04:04.685Z,3.77
2019-06-20T21:09:08.556Z,4.30
2019-06-20T21:14:12.193Z,5.33
2019-06-20T21:19:16.061Z,8.93
2019-06-20T21:24:19.703Z,7.80
2019-06-20T21:29:23.318Z,6.03
2019-06-20T21:34:28.575Z,5.90
2019-06-20T21:39:32.174Z,8.50
2019-06-20T21:44:35.792Z,9.93
2019-06-20T21:49:39.419Z,9.20
2019-06-20T21:54:44.205Z,4.17
2019-06-20T21:59:48.269Z,4.60
2019-06-20T22:04:54.829Z,4.30
2019-06-20T22:09:58.856Z,5.43
2019-06-20T22:15:07.495Z,9.40
2019-06-20T22:20:13.210Z,6.97
2019-06-20T22:25:18.902Z,6.67
2019-06-20T22:30:46.815Z,7.97
2019-06-20T22:35:50.507Z,3.90
2019-06-20T22:40:56.112Z,3.83
2019-06-20T22:46:11.034Z,4.10
2019-06-20T22:51:17.144Z,3.30
2019-06-20T22:56:20.916Z,3.27
2019-06-20T23:01:36.316Z,3.80
2019-06-20T23:06:55.364Z,3.53
2019-06-20T23:11:55.680Z,3.60
2019-06-20T23:16:59.289Z,3.83
2019-06-20T23:22:05.579Z,3.23
2019-06-20T23:27:20.361Z,3.40
2019-06-20T23:32:23.983Z,3.63
2019-06-20T23:37:30.681Z,3.60
2019-06-20T23:42:44.343Z,3.33
2019-06-20T23:47:48.023Z,3.20
2019-06-20T23:53:07.043Z,3.20
2019-06-20T23:58:10.697Z,3.40
